METAR Data
IDs: Format: Raw Decoded Include TAF

Data at: 1613 UTC 03 Dec 2021

KHRI 031553Z AUTO 12003KT 10SM CLR M01/M01 A3028 RMK AO2 SLP256 T10061011
KHRI 031453Z AUTO 14003KT 10SM CLR M03/M03 A3028 RMK AO2 SLP259 T10281028 53008 $
KHRI 031353Z AUTO 00000KT 10SM CLR 01/M01 A3027 RMK AO2 SLP252 T00061006 $
KHRI 031253Z AUTO 15005KT 10SM CLR M01/M01 A3025 RMK AO2 SLP247 T10061011 $
KHRI 031153Z AUTO 16003KT 10SM CLR 01/00 A3026 RMK AO2 SLP248 T00110000 10083 20011 51001 $
KHRI 031053Z AUTO 10003KT 10SM CLR 03/01 A3025 RMK AO2 SLP246 T00280006 $
KHRI 030953Z AUTO 34003KT 10SM CLR 04/02 A3026 RMK AO2 SLP248 T00440017 $
KHRI 030853Z AUTO 00000KT 10SM CLR 04/02 A3025 RMK AO2 SLP244 T00390017 50000 $
KHRI 030753Z AUTO 00000KT 10SM CLR 07/02 A3025 RMK AO2 SLP244 T00670022 401560044 $
KHRI 030653Z AUTO 22006KT 10SM CLR 07/02 A3026 RMK AO2 SLP246 T00720022 $
KHRI 030553Z AUTO 21006KT 10SM CLR 08/03 A3025 RMK AO2 SLP244 T00780028 10128 20078 53007 $
KHRI 030453Z AUTO 21009KT 10SM CLR 08/03 A3023 RMK AO2 SLP238 T00830028 $
KHRI 030353Z AUTO 20009KT 10SM CLR 08/02 A3023 RMK AO2 SLP237 T00830022 $
KHRI 030253Z AUTO 18006KT 10SM CLR 09/02 A3023 RMK AO2 SLP237 T00890022 51013 $
KHRI 030153Z AUTO 22007KT 10SM CLR 10/03 A3022 RMK AO2 SLP233 T01000028 $
KHRI 030053Z AUTO 25012KT 10SM CLR 11/03 A3021 RMK AO2 SLP228 T01110028
KHRI 022353Z AUTO 26013G21KT 10SM CLR 13/03 A3019 RMK AO2 SLP222 T01280028 10156 20128 53007
KHRI 022253Z AUTO 25018G24KT 10SM CLR 14/04 A3018 RMK AO2 PK WND 26026/2240 SLP217 T01440039
KHRI 022153Z AUTO 26016G25KT 10SM CLR 15/05 A3016 RMK AO2 PK WND 25032/2120 SLP212 T01500050
KHRI 022053Z AUTO 26021G30KT 10SM CLR 16/04 A3017 RMK AO2 PK WND 24032/2036 SLP215 T01560039 56008
KHRI 021953Z AUTO 25020G27KT 10SM CLR 16/04 A3017 RMK AO2 PK WND 25028/1935 SLP214 T01560039
KHRI 021853Z AUTO 25012G23KT 10SM CLR 14/05 A3018 RMK AO2 SLP219 T01440050
KHRI 021753Z AUTO 24011G19KT 10SM CLR 14/07 A3019 RMK AO2 SLP222 T01390072 10139 20111 53025
KHRI 021653Z AUTO 24014G23KT 10SM CLR 13/07 A3016 RMK AO2 SLP212 T01330067
KHRI 021553Z AUTO 23011KT 10SM CLR 12/07 A3014 RMK AO2 SLP205 T01220067
KHRI 021453Z AUTO 23010G21KT 10SM CLR 12/07 A3012 RMK AO2 SLP198 T01220072 53013
KHRI 021353Z AUTO 28008G17KT 10SM CLR 12/07 A3010 RMK AO2 WSHFT 1335 SLP192 T01220067
KHRI 021253Z AUTO 23011KT 10SM CLR 13/06 A3009 RMK AO2 SLP186 T01280061
KHRI 021153Z AUTO 24009KT 10SM SCT100 13/06 A3008 RMK AO2 SLP184 T01280056 10167 20111 53005
KHRI 021053Z AUTO 21007KT 10SM BKN090 13/06 A3008 RMK AO2 SLP182 T01280061
KHRI 020953Z AUTO 21006KT 10SM SCT095 11/04 A3007 RMK AO2 SLP178 T01110044
KHRI 020853Z AUTO 18004KT 10SM FEW090 12/06 A3006 RMK AO2 SLP177 T01220056 56005
KHRI 020753Z AUTO 20005KT 10SM OVC095 14/09 A3007 RMK AO2 SLP179 T01440089 402170111
KHRI 020653Z AUTO 20009KT 10SM OVC090 17/08 A3007 RMK AO2 SLP179 T01670083
KHRI 020553Z AUTO 18007KT 10SM OVC085 16/08 A3008 RMK AO2 SLP183 T01610083 10194 20122 53004
KHRI 020453Z AUTO 19007KT 10SM OVC085 15/09 A3007 RMK AO2 SLP181 T01500094